INFORMAÇÕES METEOROLÓGICAS
METAR FOR SAZS
ADDS - METARS form results

(1408 UTC 20 April 2018)
Data provider http://aviationweather.gov/adds/metars/
 
METAR text: SAZS 201400Z 29015KT 9999 VCSH FEW015 BKN033 13/07 Q1012
Conditions at: SAZS (SAN CARLOS BARIL, AR) observed 1400 UTC 20 April 2018
Temperature: 13.0°C (55°F)
Dewpoint: 7.0°C (45°F) [RH = 67%]
Pressure (altimeter): 29.88 inches Hg (1012.0 mb)
Winds: from the WNW (290 degrees) at 17 MPH (15 knots; 7.8 m/s)
Visibility: 6 or more miles (10+ km)
Ceiling: 3300 feet AGL
Clouds: few clouds at 1500 feet AGL
broken clouds at 3300 feet AGL
Weather: VCSH  (showers in vicinity)

Forecast for: SAZS (SAN CARLOS BARIL, AR)
Text: TAF SAZS 201100Z 2012/2112 32015KT 9999 SCT010 BKN035 TX14/2014Z TN08/2108Z
Forecast period: 1200 UTC 20 April 2018 to 1200 UTC 21 April 2018
Forecast type: FROM: standard forecast or significant change
Winds: from the NW (320 degrees) at 17 MPH (15 knots; 7.8 m/s)
Visibility: 6 or more miles (10+ km)
Ceiling: 3500 feet AGL
Clouds: scattered clouds at 1000 feet AGL
broken clouds at 3500 feet AGL
Weather: no significant weather forecast for this period
Forecast for: SAZS (SAN CARLOS BARIL, AR)
Text: TAF SAZS 201100Z 2012/2112 32015KT 9999 SCT010 BKN035 TX14/2014Z TN08/2108Z
Forecast period: 1200 UTC 20 April 2018 to 1200 UTC 21 April 2018
Forecast type: FROM: standard forecast or significant change
Winds: from the NW (320 degrees) at 17 MPH (15 knots; 7.8 m/s)
Visibility: 6 or more miles (10+ km)
Ceiling: 3500 feet AGL
Clouds: scattered clouds at 1000 feet AGL
broken clouds at 3500 feet AGL
Weather: no significant weather forecast for this period
Forecast for: SAZS (SAN CARLOS BARIL, AR)
Text: TAF SAZS 201100Z 2012/2112 32015KT 9999 SCT010 BKN035 TX14/2014Z TN08/2108Z
Forecast period: 1200 to 1500 UTC 20 April 2018
Forecast type: BECOMING: Conditions expected to become as follows by 1400 UTC 20 April 2018
Winds: from the WNW (300 degrees) at 23 MPH (20 knots; 10.4 m/s)
gusting to 34 MPH (30 knots; 15.6 m/s)
Visibility: 6 or more miles (10+ km)
Ceiling: 3000 feet AGL
Clouds: overcast cloud deck at 3000 feet AGL
Weather: no significant weather forecast for this period
Forecast for: SAZS (SAN CARLOS BARIL, AR)
Text: TAF SAZS 201100Z 2012/2112 32015KT 9999 SCT010 BKN035 TX14/2014Z TN08/2108Z
Forecast period: 1200 to 1500 UTC 20 April 2018
Forecast type: BECOMING: Conditions expected to become as follows by 1400 UTC 20 April 2018
Winds: from the WNW (300 degrees) at 23 MPH (20 knots; 10.4 m/s)
gusting to 34 MPH (30 knots; 15.6 m/s)
Visibility: 6 or more miles (10+ km)
Ceiling: 3000 feet AGL
Clouds: overcast cloud deck at 3000 feet AGL
Weather: no significant weather forecast for this period
Forecast for: SAZS (SAN CARLOS BARIL, AR)
Text: TAF SAZS 201100Z 2012/2112 32015KT 9999 SCT010 BKN035 TX14/2014Z TN08/2108Z
Forecast period: 1500 to 2300 UTC 20 April 2018
Forecast type: BECOMING: Conditions expected to become as follows by 1700 UTC 20 April 2018
Winds: from the WNW (300 degrees) at 23 MPH (20 knots; 10.4 m/s)
gusting to 34 MPH (30 knots; 15.6 m/s)
Visibility: 4 miles (6 km)
Ceiling: 3000 feet AGL
Clouds: scattered clouds at 1500 feet AGL
overcast cloud deck at 3000 feet AGL
Weather: RA DZ  (rain, drizzle)
Forecast for: SAZS (SAN CARLOS BARIL, AR)
Text: TAF SAZS 201100Z 2012/2112 32015KT 9999 SCT010 BKN035 TX14/2014Z TN08/2108Z
Forecast period: 1500 to 2300 UTC 20 April 2018
Forecast type: BECOMING: Conditions expected to become as follows by 1700 UTC 20 April 2018
Winds: from the WNW (300 degrees) at 23 MPH (20 knots; 10.4 m/s)
gusting to 34 MPH (30 knots; 15.6 m/s)
Visibility: 4 miles (6 km)
Ceiling: 3000 feet AGL
Clouds: scattered clouds at 1500 feet AGL
overcast cloud deck at 3000 feet AGL
Weather: RA DZ  (rain, drizzle)
Forecast for: SAZS (SAN CARLOS BARIL, AR)
Text: TAF SAZS 201100Z 2012/2112 32015KT 9999 SCT010 BKN035 TX14/2014Z TN08/2108Z
Forecast period: 2300 UTC 20 April 2018 to 1200 UTC 21 April 2018
Forecast type: BECOMING: Conditions expected to become as follows by 0100 UTC 21 April 2018
Winds: from the WNW (290 degrees) at 12 MPH (10 knots; 5.2 m/s)
Visibility: 6 or more miles (10+ km)
Ceiling: 2000 feet AGL
Clouds: overcast cloud deck at 2000 feet AGL
Weather: NSW  (no significant weather)
Forecast for: SAZS (SAN CARLOS BARIL, AR)
Text: TAF SAZS 201100Z 2012/2112 32015KT 9999 SCT010 BKN035 TX14/2014Z TN08/2108Z
Forecast period: 2300 UTC 20 April 2018 to 1200 UTC 21 April 2018
Forecast type: BECOMING: Conditions expected to become as follows by 0100 UTC 21 April 2018
Winds: from the WNW (290 degrees) at 12 MPH (10 knots; 5.2 m/s)
Visibility: 6 or more miles (10+ km)
Ceiling: 2000 feet AGL
Clouds: overcast cloud deck at 2000 feet AGL
Weather: NSW  (no significant weather)

 MAPA DO AEROPORTO

 INFORMAÇÕES DA PISTA
Pista 11 Tamanho da pista 7703 ft Largura da pista 157 ft
Elevação da pista 2749 ft Ranhura da pista 0 ft Proa da pista 115
Pista 29 Tamanho da pista 7703 ft Largura da pista 157 ft
Elevação da pista 2772 ft Ranhura da pista 0 ft Proa da pista 295

 FREQUÊNCIAS DO AEROPORTO
Tipo ATIS Nome ATIS Frequência 127.9 MHZ
Tipo RDO Nome BARILOCHE Frequência 122.3 MHZ
Tipo TWR Nome BARILOCHE Frequência 119.1 MHZ

 AUXÍLIOS DE NAVEGAÇÃO PRÓXIMOS AO AEROPORTO
Tipo VOR-DME Nome San Carlos De Bariloche Frequência 117400 KHZ



Powered by Mercosul Lnhas Aereas